createdAt,value
2018-06-22T00:00:19.558Z,7.50
2018-06-22T00:02:47.874Z,6.92
2018-06-22T00:05:16.174Z,6.85
2018-06-22T00:07:44.491Z,7.62
2018-06-22T00:10:12.839Z,8.53
2018-06-22T00:12:41.138Z,10.95
2018-06-22T00:15:09.546Z,10.07
2018-06-22T00:17:38.074Z,17.77
2018-06-22T00:20:06.378Z,10.23
2018-06-22T00:22:34.690Z,3.40
2018-06-22T00:25:03.108Z,6.50
2018-06-22T00:27:31.447Z,6.90
2018-06-22T00:29:59.762Z,8.08
2018-06-22T00:32:28.070Z,7.17
2018-06-22T00:34:56.374Z,6.03
2018-06-22T00:37:24.782Z,11.13
2018-06-22T00:39:53.109Z,5.62
2018-06-22T00:42:21.414Z,8.83
2018-06-22T00:44:49.799Z,6.42
2018-06-22T00:47:18.174Z,5.90
2018-06-22T00:49:46.498Z,7.53
2018-06-22T00:52:14.534Z,5.20
2018-06-22T00:54:42.881Z,5.27
2018-06-22T00:57:11.206Z,4.85
2018-06-22T00:59:39.582Z,8.40
2018-06-22T01:02:07.954Z,5.33
2018-06-22T01:04:36.479Z,5.90
2018-06-22T01:07:04.846Z,7.33
2018-06-22T01:09:33.425Z,7.28
2018-06-22T01:12:01.739Z,5.75
2018-06-22T01:14:30.047Z,5.33
2018-06-22T01:16:58.380Z,3.92
2018-06-22T01:19:26.779Z,14.07
2018-06-22T01:21:55.091Z,4.53
2018-06-22T01:24:23.426Z,9.25
2018-06-22T01:26:51.746Z,11.40
2018-06-22T01:29:25.594Z,3.43
2018-06-22T01:31:54.003Z,6.50
2018-06-22T01:34:22.310Z,3.15
2018-06-22T01:36:50.659Z,8.75
2018-06-22T01:39:18.955Z,7.92
2018-06-22T01:41:47.357Z,3.10
2018-06-22T01:44:15.698Z,5.05
2018-06-22T01:46:44.042Z,9.77
2018-06-22T01:49:12.345Z,6.87
2018-06-22T01:51:43.582Z,6.67
2018-06-22T01:54:11.914Z,7.08
2018-06-22T01:56:40.251Z,4.95
2018-06-22T01:59:08.575Z,5.70
2018-06-22T02:01:36.893Z,6.40
2018-06-22T02:04:05.270Z,5.37
2018-06-22T02:06:33.610Z,2.67
2018-06-22T02:09:01.926Z,2.20
2018-06-22T02:11:30.238Z,4.70
2018-06-22T02:13:58.562Z,3.95
2018-06-22T02:16:26.702Z,3.15
2018-06-22T02:18:55.031Z,3.87
2018-06-22T02:21:23.370Z,7.20
2018-06-22T02:23:51.679Z,4.30
2018-06-22T02:26:20.011Z,5.40
2018-06-22T02:28:48.425Z,4.03
2018-06-22T02:31:16.775Z,8.70
2018-06-22T02:33:45.147Z,6.87
2018-06-22T02:36:13.465Z,6.37
2018-06-22T02:38:42.151Z,9.10
2018-06-22T02:41:10.462Z,6.20
2018-06-22T02:43:38.818Z,9.67
2018-06-22T02:46:07.184Z,4.53
2018-06-22T02:48:35.218Z,6.15
2018-06-22T02:51:03.607Z,4.67
2018-06-22T02:53:31.931Z,7.17
2018-06-22T02:56:00.258Z,3.02
2018-06-22T02:58:28.567Z,8.77
2018-06-22T03:00:56.610Z,2.98
2018-06-22T03:03:24.923Z,6.78
2018-06-22T03:05:53.292Z,4.50
2018-06-22T03:08:21.346Z,6.28
2018-06-22T03:10:49.677Z,3.60
2018-06-22T03:13:17.990Z,6.45
2018-06-22T03:15:46.302Z,2.87
2018-06-22T03:18:14.623Z,9.35
2018-06-22T03:20:42.954Z,5.30
2018-06-22T03:23:11.270Z,5.28
2018-06-22T03:25:39.599Z,7.20
2018-06-22T03:28:07.643Z,5.97
2018-06-22T03:30:35.951Z,4.85
2018-06-22T03:33:04.019Z,4.97
2018-06-22T03:35:32.341Z,4.08
2018-06-22T03:38:00.662Z,8.68
2018-06-22T03:40:29.106Z,2.05
2018-06-22T03:42:57.454Z,6.13
2018-06-22T03:45:25.759Z,3.00
2018-06-22T03:47:54.074Z,2.57
2018-06-22T03:50:22.397Z,5.53
2018-06-22T03:52:50.706Z,7.78
2018-06-22T03:55:19.046Z,5.78
2018-06-22T03:57:47.363Z,4.87
2018-06-22T04:00:15.660Z,14.20
2018-06-22T04:02:43.999Z,8.25
2018-06-22T04:05:12.371Z,3.77
2018-06-22T04:07:40.723Z,3.62
2018-06-22T04:10:08.754Z,5.33
2018-06-22T04:12:37.092Z,8.45
2018-06-22T04:15:05.444Z,6.33
2018-06-22T04:17:38.026Z,4.17
2018-06-22T04:20:06.054Z,7.17
2018-06-22T04:22:34.346Z,4.70
2018-06-22T04:25:02.669Z,8.13
2018-06-22T04:27:30.957Z,6.58
2018-06-22T04:29:59.806Z,5.12
2018-06-22T04:32:28.143Z,2.55
2018-06-22T04:34:56.454Z,6.53
2018-06-22T04:37:24.746Z,9.43
2018-06-22T04:39:53.170Z,7.60
2018-06-22T04:42:21.462Z,6.80
2018-06-22T04:44:49.796Z,9.20
2018-06-22T04:47:18.118Z,5.87
2018-06-22T04:49:46.504Z,8.03
2018-06-22T04:52:15.246Z,4.60
2018-06-22T04:54:43.571Z,3.50
2018-06-22T04:57:11.919Z,4.50
2018-06-22T04:59:40.226Z,5.75
2018-06-22T05:02:08.711Z,4.10
2018-06-22T05:04:37.042Z,5.70
2018-06-22T05:07:05.362Z,6.55
2018-06-22T05:09:33.682Z,2.90
2018-06-22T05:12:02.047Z,4.55
2018-06-22T05:14:30.368Z,3.10
2018-06-22T05:16:58.976Z,7.05
2018-06-22T05:19:27.319Z,4.37
2018-06-22T05:21:55.771Z,5.17
2018-06-22T05:24:23.830Z,3.37
2018-06-22T05:26:52.165Z,5.47
2018-06-22T05:29:20.525Z,5.87
2018-06-22T05:31:48.878Z,5.92
2018-06-22T05:34:16.942Z,4.72
2018-06-22T05:36:44.994Z,3.62
2018-06-22T05:39:13.358Z,5.93
2018-06-22T05:41:41.694Z,7.22
2018-06-22T05:44:10.338Z,7.25
2018-06-22T05:46:38.747Z,7.10
2018-06-22T05:49:07.263Z,5.40
2018-06-22T05:51:35.640Z,8.88
2018-06-22T05:54:04.003Z,8.73
2018-06-22T05:56:32.421Z,6.28
2018-06-22T05:59:00.759Z,7.90
2018-06-22T06:01:29.246Z,7.65
2018-06-22T06:03:57.602Z,6.35
2018-06-22T06:06:25.920Z,4.17
2018-06-22T06:08:54.304Z,6.83
2018-06-22T06:11:22.930Z,12.53
2018-06-22T06:13:51.260Z,5.93
2018-06-22T06:16:19.620Z,2.90
2018-06-22T06:18:48.170Z,4.80
2018-06-22T06:21:16.486Z,9.40
2018-06-22T06:23:44.891Z,7.80
2018-06-22T06:26:13.347Z,10.97
2018-06-22T06:28:41.672Z,3.63
2018-06-22T06:31:09.986Z,8.73
2018-06-22T06:33:38.306Z,8.17
2018-06-22T06:36:07.060Z,3.60
2018-06-22T06:38:35.442Z,9.83
2018-06-22T06:41:03.858Z,5.17
2018-06-22T06:43:32.182Z,6.85
2018-06-22T06:46:00.578Z,5.13
2018-06-22T06:48:28.918Z,9.40
2018-06-22T06:50:57.267Z,8.83
2018-06-22T06:53:25.803Z,5.10
2018-06-22T06:55:54.158Z,6.20
2018-06-22T06:58:22.605Z,6.50
2018-06-22T07:00:51.015Z,11.43
2018-06-22T07:03:19.630Z,12.17
2018-06-22T07:05:47.988Z,5.05
2018-06-22T07:08:16.768Z,7.63
2018-06-22T07:10:45.698Z,10.00
2018-06-22T07:13:14.039Z,14.23
2018-06-22T07:15:42.659Z,8.35
2018-06-22T07:18:11.102Z,6.37
2018-06-22T07:20:39.447Z,9.55
2018-06-22T07:23:08.542Z,6.80
2018-06-22T07:25:36.883Z,5.70
2018-06-22T07:28:05.270Z,8.63
2018-06-22T07:30:33.597Z,7.97
2018-06-22T07:35:29.546Z,5.90
2018-06-22T10:37:44.939Z,7.27
2018-06-22T10:52:34.874Z,12.33
2018-06-22T11:27:04.886Z,6.50
2018-06-22T11:54:11.471Z,7.17
2018-06-22T11:56:40.179Z,11.45
2018-06-22T11:59:10.774Z,6.17
2018-06-22T12:06:36.687Z,8.50
2018-06-22T12:36:15.144Z,9.43
2018-06-22T13:00:55.103Z,8.10
2018-06-22T13:03:24.436Z,12.67
2018-06-22T14:41:57.075Z,13.20
2018-06-22T14:44:25.454Z,9.15
2018-06-22T14:49:21.601Z,10.20
2018-06-22T14:51:54.271Z,10.60
2018-06-22T14:54:28.191Z,9.90
2018-06-22T14:57:01.973Z,11.00
2018-06-22T14:59:35.887Z,13.55
2018-06-22T15:12:13.711Z,9.60
2018-06-22T15:14:43.811Z,12.07
2018-06-22T15:17:13.802Z,7.30
2018-06-22T15:19:44.828Z,5.77
2018-06-22T15:47:30.844Z,7.90
2018-06-22T16:36:24.250Z,8.40
2018-06-22T16:38:52.690Z,15.35
2018-06-22T16:41:21.281Z,13.83
2018-06-22T16:43:50.091Z,10.60
2018-06-22T16:46:22.479Z,14.05
2018-06-22T16:51:27.988Z,9.90
2018-06-22T16:54:10.929Z,9.70
2018-06-22T17:09:13.214Z,15.00
2018-06-22T17:16:54.355Z,17.95
2018-06-22T17:19:23.748Z,15.15
2018-06-22T17:21:52.251Z,14.50
2018-06-22T17:24:20.901Z,12.90
2018-06-22T17:26:49.324Z,10.00
2018-06-22T17:31:45.524Z,14.80
2018-06-22T17:36:42.371Z,18.50
2018-06-22T17:41:39.489Z,15.85
2018-06-22T17:44:08.329Z,16.00
2018-06-22T17:46:37.546Z,11.80
2018-06-22T17:49:06.013Z,12.90
2018-06-22T17:54:02.263Z,14.60
2018-06-22T18:12:55.278Z,10.60
2018-06-22T18:27:44.359Z,17.40
2018-06-22T18:55:05.670Z,13.60
2018-06-22T19:00:12.528Z,15.85
2018-06-22T19:05:14.031Z,16.45
2018-06-22T19:22:30.264Z,17.45
2018-06-22T19:24:58.718Z,17.80
2018-06-22T19:29:56.595Z,17.60
2018-06-22T19:32:26.514Z,15.00
2018-06-22T19:35:00.480Z,13.85
2018-06-22T19:37:28.834Z,12.25
2018-06-22T19:39:57.250Z,13.80
2018-06-22T19:42:26.485Z,17.57
2018-06-22T19:45:00.296Z,14.17
2018-06-22T19:47:34.640Z,14.37
2018-06-22T19:50:09.531Z,18.50
2018-06-22T19:52:43.388Z,14.90
2018-06-22T19:55:11.820Z,16.80
2018-06-22T19:57:41.333Z,15.10
2018-06-22T20:00:09.859Z,20.83
2018-06-22T20:02:38.280Z,20.20
2018-06-22T20:05:07.955Z,11.40
2018-06-22T20:07:36.619Z,16.20
2018-06-22T20:10:05.601Z,20.80
2018-06-22T20:12:34.373Z,20.07
2018-06-22T20:15:03.027Z,14.63
2018-06-22T20:17:36.583Z,15.77
2018-06-22T20:20:08.731Z,16.93
2018-06-22T20:22:37.171Z,23.83
2018-06-22T20:25:15.844Z,21.90
2018-06-22T20:27:44.279Z,17.37
2018-06-22T20:30:12.394Z,16.53
2018-06-22T20:32:40.826Z,20.03
2018-06-22T20:35:14.265Z,20.47
2018-06-22T20:37:49.039Z,17.10
2018-06-22T20:40:22.918Z,15.47
2018-06-22T20:42:57.903Z,16.77
2018-06-22T20:45:31.715Z,20.83
2018-06-22T20:48:05.479Z,19.97
2018-06-22T20:50:35.780Z,19.73
2018-06-22T20:53:04.534Z,20.43
2018-06-22T20:55:33.962Z,15.90
2018-06-22T20:58:02.926Z,19.60
2018-06-22T21:00:31.351Z,18.80
2018-06-22T21:02:59.830Z,19.00
2018-06-22T21:05:28.275Z,19.97
2018-06-22T21:07:56.858Z,17.10
2018-06-22T21:10:25.503Z,7.47
2018-06-22T21:12:55.092Z,19.50
2018-06-22T21:15:23.081Z,24.10
2018-06-22T21:17:52.251Z,28.60
2018-06-22T21:20:20.885Z,13.00
2018-06-22T21:22:49.393Z,16.40
2018-06-22T21:25:17.818Z,29.33
2018-06-22T21:27:51.603Z,19.10
2018-06-22T21:30:25.382Z,21.10
2018-06-22T21:32:59.791Z,20.60
2018-06-22T21:35:34.395Z,12.87
2018-06-22T21:38:08.042Z,14.60
2018-06-22T21:40:36.447Z,18.40
2018-06-22T21:43:07.831Z,22.75
2018-06-22T21:45:36.548Z,16.75
2018-06-22T21:48:11.524Z,20.00
2018-06-22T21:50:40.739Z,16.63
2018-06-22T21:53:19.747Z,22.17
2018-06-22T21:55:49.083Z,17.98
2018-06-22T21:58:17.646Z,20.62
2018-06-22T22:00:47.159Z,18.62
2018-06-22T22:03:15.863Z,23.27
2018-06-22T22:05:44.835Z,15.83
2018-06-22T22:08:13.405Z,20.03
2018-06-22T22:11:14.455Z,16.20
2018-06-22T22:13:43.916Z,32.42
2018-06-22T22:16:12.432Z,31.02
2018-06-22T22:18:41.411Z,29.02
2018-06-22T22:21:10.517Z,22.70
2018-06-22T22:23:38.986Z,17.60
2018-06-22T22:26:07.349Z,25.75
2018-06-22T22:28:35.710Z,22.22
2018-06-22T22:31:04.060Z,21.17
2018-06-22T22:33:32.406Z,17.50
2018-06-22T22:36:01.783Z,23.00
2018-06-22T22:38:30.807Z,27.82
2018-06-22T22:40:59.193Z,16.02
2018-06-22T22:43:27.663Z,22.67
2018-06-22T22:45:56.031Z,31.50
2018-06-22T22:48:24.503Z,17.70
2018-06-22T22:50:52.887Z,18.27
2018-06-22T22:53:21.211Z,21.93
2018-06-22T22:55:49.710Z,19.87
2018-06-22T22:58:18.076Z,20.52
2018-06-22T23:00:46.387Z,20.90
2018-06-22T23:03:15.315Z,22.10
2018-06-22T23:05:44.362Z,21.33
2018-06-22T23:08:12.494Z,16.95
2018-06-22T23:10:40.967Z,17.27
2018-06-22T23:13:09.297Z,12.20
2018-06-22T23:15:37.715Z,24.30
2018-06-22T23:18:06.879Z,20.50
2018-06-22T23:20:35.403Z,16.37
2018-06-22T23:23:15.206Z,19.17
2018-06-22T23:25:43.586Z,22.00
2018-06-22T23:28:11.929Z,22.05
2018-06-22T23:30:40.320Z,18.05
2018-06-22T23:33:08.631Z,23.77
2018-06-22T23:35:36.954Z,24.45
2018-06-22T23:38:05.542Z,16.73
2018-06-22T23:40:33.854Z,20.40
2018-06-22T23:43:02.283Z,22.20
2018-06-22T23:45:30.644Z,21.83
2018-06-22T23:47:59.095Z,18.77
2018-06-22T23:50:27.440Z,16.35
2018-06-22T23:52:55.944Z,11.63
2018-06-22T23:55:24.283Z,21.15
2018-06-22T23:57:52.610Z,14.17
